Latest Weather Observations for Ngukurr AWS

IDD60801

Issued at 11:31 pm CST Wednesday 31 August 2016 (issued every 30 minutes, with the page automatically refreshed every 10 minutes)

About weather observations | Map of weather stations | Latest weather observations for NT | Other Formats
Station Details ID: 014299 Name: NGUKURR AIRPORT Lat: -14.72 Lon: 134.75 Height: 14.46 m
Data from the previous 72 hours. | See also: Recent months at Ngukurr AWS
Date/Time
CST
Temp
°C
App
Temp
°C
Dew
Point
°C
Rel
Hum
%
Delta-T
°C
Wind Press
QNH
hPa
Press
MSL
hPa
Rain since
9am
mm
Dir  Spd
km/h
Gust
km/h
Spd
kts
Gust
kts
31/11:30pm 24.2 26.6 20.9 82 2.2 E 9 15 5 8 1014.3 1014.3 0.0
31/11:00pm 24.4 26.5 20.9 81 2.3 ENE 11 17 6 9 1014.5 1014.5 0.0
31/10:30pm 24.5 26.0 21.2 82 2.2 ENE 15 22 8 12 1014.6 1014.6 0.0
31/10:00pm 24.7 26.2 21.2 81 2.3 ENE 15 22 8 12 1014.7 1014.7 0.0
31/09:30pm 24.9 26.4 21.2 80 2.4 ENE 15 26 8 14 1014.5 1014.5 0.0
31/09:00pm 25.1 25.5 21.0 78 2.7 ENE 20 30 11 16 1014.1 1014.1 0.0
31/08:30pm 25.6 26.5 20.8 75 3.2 E 17 24 9 13 1014.3 1014.3 0.0
31/08:00pm 26.2 26.8 20.3 70 3.9 E 17 24 9 13 1014.0 1014.0 0.0
31/07:30pm 26.6 28.1 19.7 66 4.5 ESE 11 19 6 10 1013.7 1013.7 0.0
31/07:00pm 27.1 27.8 19.7 64 4.8 E 15 20 8 11 1013.4 1013.4 0.0
31/06:30pm 27.9 28.3 19.1 58 5.7 ESE 15 22 8 12 1013.0 1013.0 0.0
31/06:00pm 29.5 29.2 18.3 51 7.2 ESE 17 24 9 13 1012.3 1012.3 0.0
31/05:30pm 30.9 30.3 17.6 45 8.5 ESE 17 24 9 13 1011.9 1011.9 0.0
31/05:00pm 31.5 30.0 16.3 40 9.5 SE 19 30 10 16 1011.6 1011.6 0.0
31/04:30pm 32.8 30.7 15.3 34 10.9 ESE 20 28 11 15 1011.4 1011.4 0.0
31/04:00pm 33.5 31.7 15.5 34 11.2 E 19 30 10 16 1011.4 1011.4 0.0
31/03:30pm 33.9 31.6 15.8 33 11.4 E 22 32 12 17 1011.5 1011.5 0.0
31/03:00pm 34.4 32.7 15.8 33 11.7 E 19 28 10 15 1011.7 1011.7 0.0
31/02:30pm 34.5 32.7 15.9 33 11.7 ESE 20 33 11 18 1012.0 1012.0 0.0
31/02:00pm 35.0 33.9 15.3 30 12.3 E 15 26 8 14 1012.4 1012.4 0.0
31/01:30pm 34.3 32.4 14.2 29 12.3 NE 17 24 9 13 1012.9 1012.9 0.0
31/01:00pm 34.6 33.0 15.0 31 12.2 ENE 17 28 9 15 1013.5 1013.5 0.0
31/12:30pm 34.6 33.0 15.0 31 12.2 ENE 17 28 9 15 1014.1 1014.1 0.0
31/12:00pm 33.6 32.2 14.6 31 11.7 NE 15 24 8 13 1014.7 1014.7 0.0
31/11:30am 33.0 31.5 14.1 32 11.5 NE 15 26 8 14 1015.3 1015.3 0.0
31/11:00am 32.2 30.3 14.3 33 10.9 ENE 17 26 9 14 1015.9 1015.9 0.0
31/10:30am 31.6 30.9 15.5 37 10.0 E 13 22 7 12 1016.2 1016.2 0.0
31/10:00am 29.9 31.9 18.7 51 7.2 ESE 6 13 3 7 1016.6 1016.6 0.0
31/09:30am 27.5 30.3 19.6 62 5.1 ESE 4 9 2 5 1016.7 1016.7 0.0
31/09:00am 26.7 29.8 20.3 68 4.2 ENE 4 7 2 4 1016.7 1016.7 0.0
31/08:30am 25.7 29.5 20.9 75 3.2 NE 2 6 1 3 1016.6 1016.6 0.0
31/08:00am 24.1 28.1 21.4 85 1.8 NNE 2 6 1 3 1016.5 1016.5 0.0
31/07:30am 23.7 28.4 22.0 90 1.1 CALM 0 0 0 0 1016.3 1016.3 0.0
31/07:00am 21.8 25.9 20.8 94 0.6 CALM 0 0 0 0 1016.2 1016.2 0.0
31/06:30am 22.0 26.0 20.6 92 0.9 CALM 0 0 0 0 1015.9 1015.9 0.0
31/06:00am 23.2 26.9 21.5 90 1.1 NE 4 6 2 3 1015.5 1015.5 0.0
31/05:30am 23.6 26.7 21.5 88 1.4 NE 7 9 4 5 1015.4 1015.4 0.0
31/05:00am 23.9 27.3 21.6 87 1.5 NE 6 7 3 4 1015.4 1015.4 0.0
31/04:30am 24.0 27.1 21.5 86 1.7 ENE 7 13 4 7 1015.2 1015.2 0.0
31/04:00am 24.2 27.3 21.5 85 1.8 ENE 7 13 4 7 1015.1 1015.1 0.0
31/03:30am 24.4 27.2 21.5 84 1.9 ENE 9 17 5 9 1015.3 1015.3 0.0
31/03:00am 24.4 26.9 21.7 85 1.8 ENE 11 19 6 10 1015.4 1015.4 0.0
31/02:30am 24.7 26.6 21.4 82 2.2 ENE 13 19 7 10 1015.4 1015.4 0.0
31/02:00am 25.0 27.1 21.7 82 2.2 ENE 13 20 7 11 1015.3 1015.3 0.0
31/01:30am 25.4 27.1 21.7 80 2.5 ENE 15 22 8 12 1015.3 1015.3 0.0
31/01:00am 25.5 27.3 21.8 80 2.5 ENE 15 22 8 12 1015.6 1015.6 0.0
31/12:30am 25.5 27.9 22.2 82 2.2 ENE 13 19 7 10 1015.7 1015.7 0.0
31/12:00am 25.2 27.6 22.3 84 1.9 ENE 13 20 7 11 1015.9 1015.9 0.0
 
Date/Time
CST
Temp
°C
App
Temp
°C
Dew
Point
°C
Rel
Hum
%
Delta-T
°C
Wind Press
QNH
hPa
Press
MSL
hPa
Rain since
9am
mm
Dir  Spd
km/h
Gust
km/h
Spd
kts
Gust
kts
30/11:30pm 24.8 27.6 22.3 86 1.7 E 11 15 6 8 1016.0 1016.0 0.0
30/11:00pm 24.9 27.6 22.2 85 1.8 E 11 15 6 8 1016.0 1016.0 0.0
30/10:30pm 25.0 27.7 22.1 84 1.9 E 11 15 6 8 1015.8 1015.8 0.0
30/10:00pm 25.1 27.7 22.0 83 2.1 E 11 17 6 9 1015.6 1015.6 0.0
30/09:30pm 25.2 26.9 21.7 81 2.3 E 15 22 8 12 1015.3 1015.3 0.0
30/09:00pm 25.5 26.8 21.6 79 2.6 E 17 24 9 13 1015.1 1015.1 0.0
30/08:30pm 25.7 26.3 21.4 77 2.8 E 20 32 11 17 1015.0 1015.0 0.0
30/08:00pm 26.1 26.7 21.1 74 3.3 E 19 24 10 13 1014.7 1014.7 0.0
30/07:30pm 26.7 27.7 21.0 71 3.8 E 17 24 9 13 1014.4 1014.4 0.0
30/07:00pm 27.5 27.9 20.6 66 4.5 E 19 28 10 15 1013.9 1013.9 0.0
30/06:30pm 28.6 28.7 20.3 60 5.5 E 20 30 11 16 1013.3 1013.3 0.0
30/06:00pm 29.8 29.0 19.2 53 6.9 ESE 22 30 12 16 1012.9 1012.9 0.0
30/05:30pm 31.2 30.3 18.2 46 8.4 ESE 20 30 11 16 1012.6 1012.6 0.0
30/05:00pm 32.8 31.9 17.8 40 9.7 ESE 19 28 10 15 1012.2 1012.2 0.0
30/04:30pm 33.7 32.8 17.8 38 10.3 E 19 30 10 16 1011.8 1011.8 0.0
30/04:00pm 34.1 32.8 16.9 36 11.0 ENE 19 28 10 15 1011.7 1011.7 0.0
30/03:30pm 33.5 33.2 16.4 36 10.8 ESE 13 22 7 12 1011.8 1011.8 0.0
30/03:00pm 34.2 33.8 16.1 34 11.4 ESE 13 20 7 11 1011.9 1011.9 0.0
30/02:30pm 34.0 33.9 15.9 33 11.4 NE 11 19 6 10 1012.6 1012.6 0.0
30/02:00pm 33.2 32.8 15.2 33 11.2 ESE 11 20 6 11 1013.1 1013.1 0.0
30/01:30pm 34.4 35.6 15.8 33 11.7 NW 4 9 2 5 1013.7 1013.7 0.0
30/01:00pm 32.6 33.3 16.0 36 10.4 SSE 7 15 4 8 1014.5 1014.5 0.0
30/12:30pm 33.6 34.1 16.5 36 10.8 NE 9 22 5 12 1015.0 1015.0 0.0
30/12:00pm 33.1 34.1 16.9 38 10.3 NNE 7 17 4 9 1015.5 1015.5 0.0
30/11:30am 31.2 31.3 16.4 41 9.3 N 11 19 6 10 1016.2 1016.2 0.0
30/11:00am 30.7 30.6 17.0 43 8.7 NNE 13 20 7 11 1016.7 1016.7 0.0
30/10:30am 30.7 30.8 17.4 45 8.4 NNE 13 19 7 10 1017.2 1017.2 0.0
30/10:00am 29.7 30.2 17.5 48 7.7 NE 11 22 6 12 1017.6 1017.6 0.0
30/09:30am 28.3 28.8 18.4 55 6.3 NNE 13 17 7 9 1017.8 1017.8 0.0
30/09:00am 27.4 30.6 20.5 66 4.5 E 4 7 2 4 1017.8 1017.8 0.0
30/08:30am 26.3 29.1 21.5 75 3.2 ENE 9 13 5 7 1017.6 1017.6 0.0
30/08:00am 25.2 28.6 21.7 81 2.3 ENE 6 9 3 5 1017.3 1017.3 0.0
30/07:30am 24.0 27.9 21.9 88 1.4 ESE 4 6 2 3 1017.1 1017.1 0.0
30/07:00am 23.6 27.3 21.5 88 1.4 ESE 4 6 2 3 1016.8 1016.8 0.0
30/06:30am 24.1 28.1 22.0 88 1.4 E 4 6 2 3 1016.5 1016.5 0.0
30/06:00am 24.1 28.2 22.2 89 1.3 NE 4 6 2 3 1016.1 1016.1 0.0
30/05:30am 24.0 28.0 22.1 89 1.3 E 4 6 2 3 1015.5 1015.5 0.0
30/05:00am 23.9 27.9 22.0 89 1.3 ENE 4 6 2 3 1014.9 1014.9 0.0
30/04:30am 23.9 27.8 21.8 88 1.4 E 4 6 2 3 1014.7 1014.7 0.0
30/04:00am 23.9 28.5 21.8 88 1.4 CALM 0 4 0 2 1014.7 1014.7 0.0
30/03:30am 24.0 27.4 21.7 87 1.5 ENE 6 9 3 5 1014.6 1014.6 0.0
30/03:00am 24.3 27.6 21.8 86 1.7 ENE 7 13 4 7 1014.5 1014.5 0.0
30/02:30am 24.2 27.5 21.9 87 1.5 ENE 7 11 4 6 1014.6 1014.6 0.0
30/02:00am 24.3 27.6 21.8 86 1.7 NE 7 9 4 5 1014.7 1014.7 0.0
30/01:30am 24.6 27.7 22.1 86 1.7 ENE 9 13 5 7 1014.7 1014.7 0.0
30/01:00am 24.8 27.8 21.9 84 1.9 ENE 9 17 5 9 1014.6 1014.6 0.0
30/12:30am 25.0 27.6 21.9 83 2.1 ENE 11 20 6 11 1014.6 1014.6 0.0
30/12:00am 25.2 28.2 21.9 82 2.2 ENE 9 17 5 9 1014.7 1014.7 0.0
 
Date/Time
CST
Temp
°C
App
Temp
°C
Dew
Point
°C
Rel
Hum
%
Delta-T
°C
Wind Press
QNH
hPa
Press
MSL
hPa
Rain since
9am
mm
Dir  Spd
km/h
Gust
km/h
Spd
kts
Gust
kts
29/11:30pm 25.4 28.1 22.1 82 2.2 ENE 11 17 6 9 1014.7 1014.7 0.0
29/11:00pm 25.5 27.8 22.0 81 2.3 ENE 13 19 7 10 1014.6 1014.6 0.0
29/10:30pm 25.8 28.4 21.9 79 2.6 ENE 11 17 6 9 1014.7 1014.7 0.0
29/10:00pm 25.8 27.6 21.9 79 2.6 ENE 15 24 8 13 1014.6 1014.6 0.0
29/09:30pm 25.8 27.1 21.7 78 2.7 E 17 24 9 13 1014.4 1014.4 0.0
29/09:00pm 25.8 27.5 21.7 78 2.7 E 15 22 8 12 1014.1 1014.1 0.0
29/08:30pm 25.8 26.8 21.7 78 2.7 E 19 24 10 13 1013.7 1013.7 0.0
29/08:00pm 25.9 27.2 21.6 77 2.9 E 17 28 9 15 1013.2 1013.2 0.0
29/07:30pm 26.4 26.8 20.9 72 3.6 E 20 28 11 15 1012.7 1012.7 0.0
29/07:00pm 27.2 27.7 20.8 68 4.2 E 19 26 10 14 1012.2 1012.2 0.0
29/06:30pm 28.3 27.6 20.3 62 5.3 E 24 35 13 19 1011.6 1011.6 0.0
29/06:00pm 29.9 30.3 19.9 55 6.6 ENE 17 28 9 15 1011.3 1011.3 0.0
29/05:30pm 31.0 30.6 19.4 50 7.6 E 20 28 11 15 1011.0 1011.0 0.0
29/05:00pm 32.0 30.9 18.6 45 8.7 ENE 22 32 12 17 1011.0 1011.0 0.0
29/04:30pm 32.9 32.4 17.9 41 9.7 E 17 28 9 15 1010.6 1010.6 0.0
29/04:00pm 33.0 31.5 17.6 40 9.9 E 22 33 12 18 1010.5 1010.5 0.0
29/03:30pm 34.8 31.8 11.9 25 13.6 NNE 19 28 10 15 1010.4 1010.4 0.0
29/03:00pm 34.5 32.4 11.0 24 13.8 NNE 13 20 7 11 1011.0 1011.0 0.0
29/02:30pm 34.1 33.0 10.7 24 13.6 NNE 7 13 4 7 1011.5 1011.5 0.0
29/02:00pm 33.7 31.9 10.9 25 13.3 NNW 11 20 6 11 1012.0 1012.0 0.0
29/01:30pm 33.5 31.9 11.4 26 13.0 ENE 11 24 6 13 1012.5 1012.5 0.0
29/01:00pm 33.5 32.2 11.4 26 13.0 ENE 9 22 5 12 1012.9 1012.9 0.0
29/12:30pm 32.7 31.2 10.7 26 12.7 N 9 17 5 9 1013.6 1013.6 0.0
29/12:00pm 32.3 31.2 12.0 29 12.0 NNE 9 20 5 11 1014.2 1014.2 0.0
29/11:30am 31.0 29.7 11.4 30 11.4 NE 9 17 5 9 1014.8 1014.8 0.0
29/11:00am 30.8 31.8 16.8 43 8.8 N 7 15 4 8 1015.5 1015.5 0.0
29/10:30am 29.3 31.1 18.4 51 7.0 ENE 6 13 3 7 1016.0 1016.0 0.0
29/10:00am 27.2 29.1 18.5 59 5.6 NE 6 9 3 5 1016.4 1016.4 0.0
29/09:30am 25.8 28.3 19.0 66 4.3 ENE 4 7 2 4 1016.6 1016.6 0.0
29/09:00am 23.7 26.7 19.2 76 2.9 ENE 2 6 1 3 1016.6 1016.6 0.0
29/08:30am 21.3 24.2 19.9 92 0.9 ENE 4 7 2 4 1016.5 1016.5 0.0
29/08:00am 20.3 23.0 19.5 95 0.5 ENE 4 6 2 3 1016.3 1016.3 0.0
29/07:30am 19.4 22.0 17.4 88 1.2 CALM 0 0 0 0 1015.9 1015.9 0.0
29/07:00am 19.0 21.3 16.8 87 1.3 CALM 0 4 0 2 1015.4 1015.4 0.0
29/06:30am 18.2 20.1 15.8 86 1.4 CALM 0 0 0 0 1015.0 1015.0 0.0
29/06:00am 17.9 19.6 15.2 84 1.6 CALM 0 0 0 0 1014.7 1014.7 0.0
29/05:30am 17.5 19.4 15.7 89 1.1 CALM 0 0 0 0 1014.3 1014.3 0.0
29/05:00am 16.2 17.5 14.2 88 1.1 CALM 0 0 0 0 1014.1 1014.1 0.0
29/04:30am 15.0 16.1 13.5 91 0.8 CALM 0 0 0 0 1013.9 1013.9 0.0
29/04:00am 15.3 16.6 14.0 92 0.7 CALM 0 0 0 0 1013.7 1013.7 0.0
29/03:30am 15.4 16.8 14.4 94 0.6 CALM 0 0 0 0 1013.7 1013.7 0.0
29/03:00am 15.8 17.2 14.5 92 0.7 CALM 0 0 0 0 1014.0 1014.0 0.0
29/02:30am 15.8 17.3 14.7 93 0.6 CALM 0 0 0 0 1014.0 1014.0 0.0
29/02:00am 16.3 17.6 15.2 93 0.6 SSW 2 2 1 1 1014.2 1014.2 0.0
29/01:30am 16.5 18.0 14.7 89 1.0 CALM 0 0 0 0 1014.3 1014.3 0.0
29/01:00am 17.4 19.2 15.6 89 1.1 CALM 0 0 0 0 1014.3 1014.3 0.0
29/12:30am 18.2 19.0 14.9 81 1.9 NE 4 6 2 3 1014.4 1014.4 0.0
29/12:00am 18.6 19.8 15.8 84 1.7 E 4 4 2 2 1014.5 1014.5 0.0

Other Formats:

Comma delimited format used in spreadsheet applications
http://www.bom.gov.au/fwo/IDD60801/IDD60801.94106.axf

JavaScript Object Notation format (JSON) in row-major order
http://www.bom.gov.au/fwo/IDD60801/IDD60801.94106.json